sensor_id;sensor_type;location;lat;lon;timestamp;P1;durP1;ratioP1;P2;durP2;ratioP2
52554;SDS011;38455;52.710;6.502;2023-08-12T00:01:50;12.77;;;7.95;;
52554;SDS011;38455;52.710;6.502;2023-08-12T00:04:16;15.25;;;8.45;;
52554;SDS011;38455;52.710;6.502;2023-08-12T00:06:42;18.88;;;8.73;;
52554;SDS011;38455;52.710;6.502;2023-08-12T00:09:08;16.60;;;9.10;;
52554;SDS011;38455;52.710;6.502;2023-08-12T00:11:36;16.05;;;10.00;;
52554;SDS011;38455;52.710;6.502;2023-08-12T00:14:02;14.57;;;8.98;;
52554;SDS011;38455;52.710;6.502;2023-08-12T00:16:29;14.98;;;9.48;;
52554;SDS011;38455;52.710;6.502;2023-08-12T00:18:54;15.95;;;9.95;;
52554;SDS011;38455;52.710;6.502;2023-08-12T00:21:20;11.88;;;9.05;;
52554;SDS011;38455;52.710;6.502;2023-08-12T00:23:46;16.58;;;9.10;;
52554;SDS011;38455;52.710;6.502;2023-08-12T00:26:14;16.67;;;10.30;;
52554;SDS011;38455;52.710;6.502;2023-08-12T00:28:40;13.88;;;8.63;;
52554;SDS011;38455;52.710;6.502;2023-08-12T00:31:06;16.00;;;9.35;;
52554;SDS011;38455;52.710;6.502;2023-08-12T00:33:32;18.80;;;9.73;;
52554;SDS011;38455;52.710;6.502;2023-08-12T00:35:58;15.73;;;10.15;;
52554;SDS011;38455;52.710;6.502;2023-08-12T00:38:23;17.20;;;9.15;;
52554;SDS011;38455;52.710;6.502;2023-08-12T00:40:49;15.13;;;10.20;;
52554;SDS011;38455;52.710;6.502;2023-08-12T00:43:15;14.63;;;8.15;;
52554;SDS011;38455;52.710;6.502;2023-08-12T00:45:40;13.45;;;8.20;;
52554;SDS011;38455;52.710;6.502;2023-08-12T00:48:07;14.50;;;9.02;;
52554;SDS011;38455;52.710;6.502;2023-08-12T00:50:34;13.88;;;7.55;;
52554;SDS011;38455;52.710;6.502;2023-08-12T00:53:02;19.08;;;9.27;;
52554;SDS011;38455;52.710;6.502;2023-08-12T00:55:31;13.68;;;8.70;;
52554;SDS011;38455;52.710;6.502;2023-08-12T00:57:58;13.48;;;8.70;;
52554;SDS011;38455;52.710;6.502;2023-08-12T01:00:24;14.68;;;9.13;;
52554;SDS011;38455;52.710;6.502;2023-08-12T01:02:49;13.75;;;9.30;;
52554;SDS011;38455;52.710;6.502;2023-08-12T01:05:17;13.82;;;8.93;;
52554;SDS011;38455;52.710;6.502;2023-08-12T01:07:43;17.52;;;9.13;;
52554;SDS011;38455;52.710;6.502;2023-08-12T01:10:11;18.98;;;10.18;;
52554;SDS011;38455;52.710;6.502;2023-08-12T01:12:52;12.90;;;9.00;;
52554;SDS011;38455;52.710;6.502;2023-08-12T01:15:23;15.38;;;8.93;;
52554;SDS011;38455;52.710;6.502;2023-08-12T01:17:51;16.23;;;9.52;;
52554;SDS011;38455;52.710;6.502;2023-08-12T01:20:22;15.43;;;9.10;;
52554;SDS011;38455;52.710;6.502;2023-08-12T01:22:58;16.60;;;9.02;;
52554;SDS011;38455;52.710;6.502;2023-08-12T01:25:38;18.42;;;10.23;;
52554;SDS011;38455;52.710;6.502;2023-08-12T01:28:04;13.48;;;9.25;;
52554;SDS011;38455;52.710;6.502;2023-08-12T01:30:30;17.40;;;9.73;;
52554;SDS011;38455;52.710;6.502;2023-08-12T01:33:05;12.18;;;8.85;;
52554;SDS011;38455;52.710;6.502;2023-08-12T01:35:39;15.45;;;9.43;;
52554;SDS011;38455;52.710;6.502;2023-08-12T01:38:06;18.48;;;10.48;;
52554;SDS011;38455;52.710;6.502;2023-08-12T01:40:35;14.73;;;9.15;;
52554;SDS011;38455;52.710;6.502;2023-08-12T01:43:02;18.25;;;9.38;;
52554;SDS011;38455;52.710;6.502;2023-08-12T01:45:32;21.25;;;12.07;;
52554;SDS011;38455;52.710;6.502;2023-08-12T01:47:58;19.90;;;10.55;;
52554;SDS011;38455;52.710;6.502;2023-08-12T01:50:24;16.65;;;9.55;;
52554;SDS011;38455;52.710;6.502;2023-08-12T01:52:50;17.85;;;10.00;;
52554;SDS011;38455;52.710;6.502;2023-08-12T01:55:16;14.30;;;9.50;;
52554;SDS011;38455;52.710;6.502;2023-08-12T01:57:42;15.48;;;8.98;;
52554;SDS011;38455;52.710;6.502;2023-08-12T02:00:08;13.65;;;8.70;;
52554;SDS011;38455;52.710;6.502;2023-08-12T02:02:34;16.27;;;9.45;;
52554;SDS011;38455;52.710;6.502;2023-08-12T02:04:59;13.73;;;9.18;;
52554;SDS011;38455;52.710;6.502;2023-08-12T02:07:25;16.80;;;10.38;;
52554;SDS011;38455;52.710;6.502;2023-08-12T02:09:51;18.25;;;10.57;;
52554;SDS011;38455;52.710;6.502;2023-08-12T02:12:16;12.75;;;9.75;;
52554;SDS011;38455;52.710;6.502;2023-08-12T02:14:42;14.95;;;9.70;;
52554;SDS011;38455;52.710;6.502;2023-08-12T02:17:08;15.02;;;9.50;;
52554;SDS011;38455;52.710;6.502;2023-08-12T02:19:33;19.48;;;11.30;;
52554;SDS011;38455;52.710;6.502;2023-08-12T02:22:00;13.10;;;9.25;;
52554;SDS011;38455;52.710;6.502;2023-08-12T02:24:28;18.63;;;10.77;;
52554;SDS011;38455;52.710;6.502;2023-08-12T02:26:54;12.82;;;9.52;;
52554;SDS011;38455;52.710;6.502;2023-08-12T02:29:20;16.77;;;9.70;;
52554;SDS011;38455;52.710;6.502;2023-08-12T02:31:46;18.23;;;9.75;;
52554;SDS011;38455;52.710;6.502;2023-08-12T02:34:11;18.90;;;10.27;;
52554;SDS011;38455;52.710;6.502;2023-08-12T02:36:37;15.07;;;9.85;;
52554;SDS011;38455;52.710;6.502;2023-08-12T02:39:03;16.38;;;9.55;;
52554;SDS011;38455;52.710;6.502;2023-08-12T02:41:30;15.27;;;10.25;;
52554;SDS011;38455;52.710;6.502;2023-08-12T02:43:56;16.20;;;9.43;;
52554;SDS011;38455;52.710;6.502;2023-08-12T02:46:21;15.23;;;9.80;;
52554;SDS011;38455;52.710;6.502;2023-08-12T02:48:47;15.93;;;10.55;;
52554;SDS011;38455;52.710;6.502;2023-08-12T02:51:13;19.33;;;10.63;;
52554;SDS011;38455;52.710;6.502;2023-08-12T02:53:39;17.92;;;10.40;;
52554;SDS011;38455;52.710;6.502;2023-08-12T02:56:04;17.55;;;10.65;;
52554;SDS011;38455;52.710;6.502;2023-08-12T02:58:30;16.33;;;9.82;;
52554;SDS011;38455;52.710;6.502;2023-08-12T03:00:56;19.38;;;11.32;;
52554;SDS011;38455;52.710;6.502;2023-08-12T03:03:21;20.30;;;9.50;;
52554;SDS011;38455;52.710;6.502;2023-08-12T03:05:48;19.08;;;11.25;;
52554;SDS011;38455;52.710;6.502;2023-08-12T03:08:14;17.02;;;11.40;;
52554;SDS011;38455;52.710;6.502;2023-08-12T03:10:40;18.10;;;9.70;;
52554;SDS011;38455;52.710;6.502;2023-08-12T03:13:06;16.42;;;9.65;;
52554;SDS011;38455;52.710;6.502;2023-08-12T03:15:32;13.88;;;10.20;;
52554;SDS011;38455;52.710;6.502;2023-08-12T03:17:57;23.98;;;12.18;;
52554;SDS011;38455;52.710;6.502;2023-08-12T03:20:23;16.60;;;10.23;;
52554;SDS011;38455;52.710;6.502;2023-08-12T03:22:49;15.50;;;10.77;;
52554;SDS011;38455;52.710;6.502;2023-08-12T03:25:14;18.48;;;10.90;;
52554;SDS011;38455;52.710;6.502;2023-08-12T03:27:40;14.05;;;10.27;;
52554;SDS011;38455;52.710;6.502;2023-08-12T03:30:06;21.23;;;11.70;;
52554;SDS011;38455;52.710;6.502;2023-08-12T03:32:33;18.52;;;10.50;;
52554;SDS011;38455;52.710;6.502;2023-08-12T03:34:59;16.58;;;10.85;;
52554;SDS011;38455;52.710;6.502;2023-08-12T03:37:25;19.92;;;11.75;;
52554;SDS011;38455;52.710;6.502;2023-08-12T03:39:51;20.80;;;11.68;;
52554;SDS011;38455;52.710;6.502;2023-08-12T03:42:16;18.42;;;11.43;;
52554;SDS011;38455;52.710;6.502;2023-08-12T03:44:43;16.90;;;10.80;;
52554;SDS011;38455;52.710;6.502;2023-08-12T03:47:09;17.58;;;10.40;;
52554;SDS011;38455;52.710;6.502;2023-08-12T03:49:35;21.58;;;12.73;;
52554;SDS011;38455;52.710;6.502;2023-08-12T03:52:01;22.25;;;12.02;;
52554;SDS011;38455;52.710;6.502;2023-08-12T03:54:28;20.50;;;11.30;;
52554;SDS011;38455;52.710;6.502;2023-08-12T03:56:53;19.67;;;11.20;;
52554;SDS011;38455;52.710;6.502;2023-08-12T03:59:19;17.27;;;11.98;;
52554;SDS011;38455;52.710;6.502;2023-08-12T04:01:45;16.80;;;10.45;;
52554;SDS011;38455;52.710;6.502;2023-08-12T04:04:11;20.88;;;12.57;;
52554;SDS011;38455;52.710;6.502;2023-08-12T04:06:36;18.20;;;12.32;;
52554;SDS011;38455;52.710;6.502;2023-08-12T04:09:02;19.70;;;12.52;;
52554;SDS011;38455;52.710;6.502;2023-08-12T04:11:29;23.38;;;13.02;;
52554;SDS011;38455;52.710;6.502;2023-08-12T04:13:54;20.95;;;12.98;;
52554;SDS011;38455;52.710;6.502;2023-08-12T04:16:20;22.48;;;13.23;;
52554;SDS011;38455;52.710;6.502;2023-08-12T04:18:47;20.80;;;13.50;;
52554;SDS011;38455;52.710;6.502;2023-08-12T04:21:13;21.30;;;11.88;;
52554;SDS011;38455;52.710;6.502;2023-08-12T04:23:39;21.88;;;12.95;;
52554;SDS011;38455;52.710;6.502;2023-08-12T04:26:04;20.80;;;13.32;;
52554;SDS011;38455;52.710;6.502;2023-08-12T04:28:30;19.45;;;14.25;;
52554;SDS011;38455;52.710;6.502;2023-08-12T04:30:56;24.00;;;13.68;;
52554;SDS011;38455;52.710;6.502;2023-08-12T04:33:22;19.63;;;12.57;;
52554;SDS011;38455;52.710;6.502;2023-08-12T04:35:48;27.50;;;13.65;;
52554;SDS011;38455;52.710;6.502;2023-08-12T04:38:14;19.17;;;12.82;;
52554;SDS011;38455;52.710;6.502;2023-08-12T04:40:41;19.45;;;14.02;;
52554;SDS011;38455;52.710;6.502;2023-08-12T04:43:07;29.23;;;16.30;;
52554;SDS011;38455;52.710;6.502;2023-08-12T04:45:34;21.67;;;14.82;;
52554;SDS011;38455;52.710;6.502;2023-08-12T04:48:00;19.13;;;13.63;;
52554;SDS011;38455;52.710;6.502;2023-08-12T04:50:25;21.80;;;14.20;;
52554;SDS011;38455;52.710;6.502;2023-08-12T04:52:55;18.45;;;13.63;;
52554;SDS011;38455;52.710;6.502;2023-08-12T04:55:21;26.88;;;15.10;;
52554;SDS011;38455;52.710;6.502;2023-08-12T04:57:47;27.25;;;16.23;;
52554;SDS011;38455;52.710;6.502;2023-08-12T05:00:12;23.88;;;14.80;;
52554;SDS011;38455;52.710;6.502;2023-08-12T05:02:38;25.13;;;15.63;;
52554;SDS011;38455;52.710;6.502;2023-08-12T05:05:04;27.52;;;16.33;;
52554;SDS011;38455;52.710;6.502;2023-08-12T05:07:30;25.17;;;16.73;;
52554;SDS011;38455;52.710;6.502;2023-08-12T05:09:56;23.30;;;15.50;;
52554;SDS011;38455;52.710;6.502;2023-08-12T05:12:22;23.30;;;15.25;;
52554;SDS011;38455;52.710;6.502;2023-08-12T05:14:48;32.70;;;18.77;;
52554;SDS011;38455;52.710;6.502;2023-08-12T05:17:13;28.40;;;17.27;;
52554;SDS011;38455;52.710;6.502;2023-08-12T05:19:39;28.02;;;15.88;;
52554;SDS011;38455;52.710;6.502;2023-08-12T05:22:05;30.02;;;18.08;;
52554;SDS011;38455;52.710;6.502;2023-08-12T05:24:30;26.67;;;17.33;;
52554;SDS011;38455;52.710;6.502;2023-08-12T05:26:56;31.52;;;18.05;;
52554;SDS011;38455;52.710;6.502;2023-08-12T05:29:22;27.33;;;18.77;;
52554;SDS011;38455;52.710;6.502;2023-08-12T05:31:47;25.67;;;18.02;;
52554;SDS011;38455;52.710;6.502;2023-08-12T05:34:13;25.77;;;16.73;;
52554;SDS011;38455;52.710;6.502;2023-08-12T05:36:39;26.05;;;16.88;;
52554;SDS011;38455;52.710;6.502;2023-08-12T05:39:04;30.05;;;18.10;;
52554;SDS011;38455;52.710;6.502;2023-08-12T05:41:31;28.17;;;18.33;;
52554;SDS011;38455;52.710;6.502;2023-08-12T05:43:56;28.73;;;18.30;;
52554;SDS011;38455;52.710;6.502;2023-08-12T05:46:22;22.67;;;17.42;;
52554;SDS011;38455;52.710;6.502;2023-08-12T05:48:48;34.92;;;18.80;;
52554;SDS011;38455;52.710;6.502;2023-08-12T05:51:13;26.13;;;17.42;;
52554;SDS011;38455;52.710;6.502;2023-08-12T05:53:39;24.35;;;16.90;;
52554;SDS011;38455;52.710;6.502;2023-08-12T05:56:05;26.27;;;16.95;;
52554;SDS011;38455;52.710;6.502;2023-08-12T05:58:30;22.33;;;15.50;;
52554;SDS011;38455;52.710;6.502;2023-08-12T06:00:56;24.05;;;15.40;;
52554;SDS011;38455;52.710;6.502;2023-08-12T06:03:22;27.90;;;17.48;;
52554;SDS011;38455;52.710;6.502;2023-08-12T06:05:47;29.35;;;17.65;;
52554;SDS011;38455;52.710;6.502;2023-08-12T06:08:14;28.35;;;17.75;;
52554;SDS011;38455;52.710;6.502;2023-08-12T06:10:39;34.05;;;17.83;;
52554;SDS011;38455;52.710;6.502;2023-08-12T06:13:05;23.80;;;17.42;;
52554;SDS011;38455;52.710;6.502;2023-08-12T06:15:31;26.60;;;18.85;;
52554;SDS011;38455;52.710;6.502;2023-08-12T06:17:58;25.50;;;17.58;;
52554;SDS011;38455;52.710;6.502;2023-08-12T06:20:24;25.92;;;18.27;;
52554;SDS011;38455;52.710;6.502;2023-08-12T06:22:50;26.60;;;18.08;;
52554;SDS011;38455;52.710;6.502;2023-08-12T06:25:17;30.10;;;18.67;;
52554;SDS011;38455;52.710;6.502;2023-08-12T06:27:43;28.23;;;18.98;;
52554;SDS011;38455;52.710;6.502;2023-08-12T06:30:09;27.83;;;18.80;;
52554;SDS011;38455;52.710;6.502;2023-08-12T06:32:35;30.40;;;18.25;;
52554;SDS011;38455;52.710;6.502;2023-08-12T06:35:01;27.70;;;17.77;;
52554;SDS011;38455;52.710;6.502;2023-08-12T06:37:27;26.30;;;18.27;;
52554;SDS011;38455;52.710;6.502;2023-08-12T06:39:53;35.20;;;19.65;;
52554;SDS011;38455;52.710;6.502;2023-08-12T06:42:18;30.90;;;18.83;;
52554;SDS011;38455;52.710;6.502;2023-08-12T06:44:45;25.13;;;17.25;;
52554;SDS011;38455;52.710;6.502;2023-08-12T06:47:10;29.73;;;17.75;;
52554;SDS011;38455;52.710;6.502;2023-08-12T06:49:36;31.10;;;18.63;;
52554;SDS011;38455;52.710;6.502;2023-08-12T06:52:02;31.77;;;19.10;;
52554;SDS011;38455;52.710;6.502;2023-08-12T06:54:28;23.50;;;16.88;;
52554;SDS011;38455;52.710;6.502;2023-08-12T06:56:53;28.35;;;18.15;;
52554;SDS011;38455;52.710;6.502;2023-08-12T06:59:19;23.85;;;17.20;;
52554;SDS011;38455;52.710;6.502;2023-08-12T07:01:45;28.42;;;18.48;;
52554;SDS011;38455;52.710;6.502;2023-08-12T07:04:10;25.23;;;18.15;;
52554;SDS011;38455;52.710;6.502;2023-08-12T07:06:36;26.60;;;17.98;;
52554;SDS011;38455;52.710;6.502;2023-08-12T07:09:02;24.63;;;18.73;;
52554;SDS011;38455;52.710;6.502;2023-08-12T07:11:28;27.52;;;18.15;;
52554;SDS011;38455;52.710;6.502;2023-08-12T07:13:54;30.17;;;20.40;;
52554;SDS011;38455;52.710;6.502;2023-08-12T07:16:19;25.48;;;17.45;;
52554;SDS011;38455;52.710;6.502;2023-08-12T07:18:45;25.17;;;17.75;;
52554;SDS011;38455;52.710;6.502;2023-08-12T07:21:11;24.42;;;17.08;;
52554;SDS011;38455;52.710;6.502;2023-08-12T07:23:36;25.48;;;17.20;;
52554;SDS011;38455;52.710;6.502;2023-08-12T07:26:02;26.60;;;18.90;;
52554;SDS011;38455;52.710;6.502;2023-08-12T07:28:28;32.97;;;19.75;;
52554;SDS011;38455;52.710;6.502;2023-08-12T07:30:53;25.65;;;17.98;;
52554;SDS011;38455;52.710;6.502;2023-08-12T07:33:19;27.05;;;18.98;;
52554;SDS011;38455;52.710;6.502;2023-08-12T07:35:46;31.50;;;18.83;;
52554;SDS011;38455;52.710;6.502;2023-08-12T07:38:12;27.23;;;19.77;;
52554;SDS011;38455;52.710;6.502;2023-08-12T07:40:37;29.92;;;18.40;;
52554;SDS011;38455;52.710;6.502;2023-08-12T07:43:03;24.52;;;17.77;;
52554;SDS011;38455;52.710;6.502;2023-08-12T07:45:29;26.67;;;17.42;;
52554;SDS011;38455;52.710;6.502;2023-08-12T07:47:57;24.58;;;17.58;;
52554;SDS011;38455;52.710;6.502;2023-08-12T07:50:23;27.08;;;16.85;;
52554;SDS011;38455;52.710;6.502;2023-08-12T07:52:49;28.00;;;17.88;;
52554;SDS011;38455;52.710;6.502;2023-08-12T07:55:15;23.67;;;16.13;;
52554;SDS011;38455;52.710;6.502;2023-08-12T07:57:41;20.08;;;16.40;;
52554;SDS011;38455;52.710;6.502;2023-08-12T08:00:07;25.42;;;16.08;;
52554;SDS011;38455;52.710;6.502;2023-08-12T08:02:33;20.35;;;15.27;;
52554;SDS011;38455;52.710;6.502;2023-08-12T08:04:59;25.95;;;17.10;;
52554;SDS011;38455;52.710;6.502;2023-08-12T08:07:24;36.38;;;20.42;;
52554;SDS011;38455;52.710;6.502;2023-08-12T08:09:50;28.13;;;19.00;;
52554;SDS011;38455;52.710;6.502;2023-08-12T08:12:16;35.63;;;18.13;;
52554;SDS011;38455;52.710;6.502;2023-08-12T08:14:42;24.38;;;14.10;;
52554;SDS011;38455;52.710;6.502;2023-08-12T08:17:08;20.35;;;12.68;;
52554;SDS011;38455;52.710;6.502;2023-08-12T08:19:33;22.13;;;12.85;;
52554;SDS011;38455;52.710;6.502;2023-08-12T08:21:59;24.65;;;13.30;;
52554;SDS011;38455;52.710;6.502;2023-08-12T08:24:25;19.10;;;12.82;;
52554;SDS011;38455;52.710;6.502;2023-08-12T08:26:51;19.48;;;11.90;;
52554;SDS011;38455;52.710;6.502;2023-08-12T08:29:17;38.17;;;17.48;;
52554;SDS011;38455;52.710;6.502;2023-08-12T08:31:43;49.72;;;18.75;;
52554;SDS011;38455;52.710;6.502;2023-08-12T08:34:08;16.83;;;9.45;;
52554;SDS011;38455;52.710;6.502;2023-08-12T08:36:35;14.32;;;8.65;;
52554;SDS011;38455;52.710;6.502;2023-08-12T08:39:01;16.27;;;9.70;;
52554;SDS011;38455;52.710;6.502;2023-08-12T08:41:28;20.27;;;11.90;;
52554;SDS011;38455;52.710;6.502;2023-08-12T08:43:56;19.23;;;11.27;;
52554;SDS011;38455;52.710;6.502;2023-08-12T08:46:28;13.50;;;8.63;;
52554;SDS011;38455;52.710;6.502;2023-08-12T08:48:54;12.75;;;8.55;;
52554;SDS011;38455;52.710;6.502;2023-08-12T08:51:23;12.70;;;7.40;;
52554;SDS011;38455;52.710;6.502;2023-08-12T08:53:50;14.23;;;8.82;;
52554;SDS011;38455;52.710;6.502;2023-08-12T08:56:19;10.57;;;8.02;;
52554;SDS011;38455;52.710;6.502;2023-08-12T08:58:45;12.40;;;8.45;;
52554;SDS011;38455;52.710;6.502;2023-08-12T09:01:11;43.22;;;12.90;;
52554;SDS011;38455;52.710;6.502;2023-08-12T09:03:39;17.58;;;10.68;;
52554;SDS011;38455;52.710;6.502;2023-08-12T09:06:15;30.65;;;11.07;;
52554;SDS011;38455;52.710;6.502;2023-08-12T09:08:45;34.55;;;13.85;;
52554;SDS011;38455;52.710;6.502;2023-08-12T09:11:12;31.75;;;15.68;;
52554;SDS011;38455;52.710;6.502;2023-08-12T09:13:39;58.13;;;19.35;;
52554;SDS011;38455;52.710;6.502;2023-08-12T09:16:05;19.75;;;13.05;;
52554;SDS011;38455;52.710;6.502;2023-08-12T09:18:30;19.90;;;13.95;;
52554;SDS011;38455;52.710;6.502;2023-08-12T09:20:57;23.23;;;14.82;;
52554;SDS011;38455;52.710;6.502;2023-08-12T09:23:23;19.17;;;13.55;;
52554;SDS011;38455;52.710;6.502;2023-08-12T09:25:50;17.33;;;11.88;;
52554;SDS011;38455;52.710;6.502;2023-08-12T09:28:16;10.63;;;7.50;;
52554;SDS011;38455;52.710;6.502;2023-08-12T09:30:42;9.20;;;6.30;;
52554;SDS011;38455;52.710;6.502;2023-08-12T09:33:14;13.07;;;6.90;;
52554;SDS011;38455;52.710;6.502;2023-08-12T09:35:40;7.15;;;5.47;;
52554;SDS011;38455;52.710;6.502;2023-08-12T09:38:10;7.78;;;5.75;;
52554;SDS011;38455;52.710;6.502;2023-08-12T09:40:38;12.13;;;5.65;;
52554;SDS011;38455;52.710;6.502;2023-08-12T09:43:04;5.63;;;4.70;;
52554;SDS011;38455;52.710;6.502;2023-08-12T09:45:30;10.05;;;5.53;;
52554;SDS011;38455;52.710;6.502;2023-08-12T09:47:59;9.68;;;5.53;;
52554;SDS011;38455;52.710;6.502;2023-08-12T09:50:26;6.35;;;4.10;;
52554;SDS011;38455;52.710;6.502;2023-08-12T09:52:52;6.68;;;4.15;;
52554;SDS011;38455;52.710;6.502;2023-08-12T09:55:20;8.10;;;4.25;;
52554;SDS011;38455;52.710;6.502;2023-08-12T09:57:49;5.90;;;4.30;;
52554;SDS011;38455;52.710;6.502;2023-08-12T10:00:17;7.30;;;3.85;;
52554;SDS011;38455;52.710;6.502;2023-08-12T10:02:45;7.28;;;3.65;;
52554;SDS011;38455;52.710;6.502;2023-08-12T10:05:15;13.68;;;5.35;;
52554;SDS011;38455;52.710;6.502;2023-08-12T10:07:45;22.05;;;3.65;;
52554;SDS011;38455;52.710;6.502;2023-08-12T10:10:12;10.98;;;3.40;;
52554;SDS011;38455;52.710;6.502;2023-08-12T10:12:38;6.72;;;3.10;;
52554;SDS011;38455;52.710;6.502;2023-08-12T10:15:05;6.38;;;3.20;;
52554;SDS011;38455;52.710;6.502;2023-08-12T10:17:33;8.60;;;4.22;;
52554;SDS011;38455;52.710;6.502;2023-08-12T10:20:00;7.32;;;3.03;;
52554;SDS011;38455;52.710;6.502;2023-08-12T10:22:29;6.03;;;4.15;;
52554;SDS011;38455;52.710;6.502;2023-08-12T10:24:59;4.38;;;3.05;;
52554;SDS011;38455;52.710;6.502;2023-08-12T10:27:27;4.20;;;3.15;;
52554;SDS011;38455;52.710;6.502;2023-08-12T10:29:56;5.25;;;3.08;;
52554;SDS011;38455;52.710;6.502;2023-08-12T10:32:25;7.93;;;4.13;;
52554;SDS011;38455;52.710;6.502;2023-08-12T10:34:55;3.50;;;2.10;;
52554;SDS011;38455;52.710;6.502;2023-08-12T10:37:23;2.47;;;1.60;;
52554;SDS011;38455;52.710;6.502;2023-08-12T10:39:51;2.10;;;1.58;;
52554;SDS011;38455;52.710;6.502;2023-08-12T10:45:08;5.40;;;1.60;;
52554;SDS011;38455;52.710;6.502;2023-08-12T10:47:48;2.50;;;1.80;;
52554;SDS011;38455;52.710;6.502;2023-08-12T10:50:34;5.40;;;1.65;;
52554;SDS011;38455;52.710;6.502;2023-08-12T10:53:01;2.25;;;1.52;;
52554;SDS011;38455;52.710;6.502;2023-08-12T10:55:59;1.65;;;1.20;;
52554;SDS011;38455;52.710;6.502;2023-08-12T10:58:29;2.35;;;1.30;;
52554;SDS011;38455;52.710;6.502;2023-08-12T11:01:11;2.70;;;1.35;;
52554;SDS011;38455;52.710;6.502;2023-08-12T11:03:44;1.55;;;1.08;;
52554;SDS011;38455;52.710;6.502;2023-08-12T11:06:11;3.08;;;1.50;;
52554;SDS011;38455;52.710;6.502;2023-08-12T11:08:36;4.65;;;2.00;;
52554;SDS011;38455;52.710;6.502;2023-08-12T11:11:21;2.13;;;1.50;;
52554;SDS011;38455;52.710;6.502;2023-08-12T11:13:57;3.95;;;1.65;;
52554;SDS011;38455;52.710;6.502;2023-08-12T11:16:34;2.17;;;1.43;;
52554;SDS011;38455;52.710;6.502;2023-08-12T11:19:00;2.47;;;1.60;;
52554;SDS011;38455;52.710;6.502;2023-08-12T11:21:27;2.50;;;1.70;;
52554;SDS011;38455;52.710;6.502;2023-08-12T11:23:54;3.90;;;1.70;;
52554;SDS011;38455;52.710;6.502;2023-08-12T11:26:21;4.53;;;1.88;;
52554;SDS011;38455;52.710;6.502;2023-08-12T11:28:48;3.45;;;1.98;;
52554;SDS011;38455;52.710;6.502;2023-08-12T11:31:15;2.72;;;1.95;;
52554;SDS011;38455;52.710;6.502;2023-08-12T11:33:41;2.55;;;1.85;;
52554;SDS011;38455;52.710;6.502;2023-08-12T11:36:07;2.55;;;1.90;;
52554;SDS011;38455;52.710;6.502;2023-08-12T11:38:33;2.67;;;1.70;;
52554;SDS011;38455;52.710;6.502;2023-08-12T11:41:02;2.70;;;1.38;;
52554;SDS011;38455;52.710;6.502;2023-08-12T11:43:28;4.60;;;1.27;;
52554;SDS011;38455;52.710;6.502;2023-08-12T11:45:55;1.65;;;1.10;;
52554;SDS011;38455;52.710;6.502;2023-08-12T11:48:21;1.95;;;1.00;;
52554;SDS011;38455;52.710;6.502;2023-08-12T11:50:49;0.85;;;0.50;;
52554;SDS011;38455;52.710;6.502;2023-08-12T11:53:15;1.42;;;0.90;;
52554;SDS011;38455;52.710;6.502;2023-08-12T11:55:41;0.63;;;0.60;;
52554;SDS011;38455;52.710;6.502;2023-08-12T11:58:08;2.13;;;0.90;;
52554;SDS011;38455;52.710;6.502;2023-08-12T12:00:36;3.55;;;1.25;;
52554;SDS011;38455;52.710;6.502;2023-08-12T12:03:02;2.38;;;1.10;;
52554;SDS011;38455;52.710;6.502;2023-08-12T12:05:29;2.95;;;1.50;;
52554;SDS011;38455;52.710;6.502;2023-08-12T12:07:55;4.00;;;1.92;;
52554;SDS011;38455;52.710;6.502;2023-08-12T12:10:26;3.30;;;1.73;;
52554;SDS011;38455;52.710;6.502;2023-08-12T12:12:56;3.80;;;1.70;;
52554;SDS011;38455;52.710;6.502;2023-08-12T12:15:23;2.88;;;1.50;;
52554;SDS011;38455;52.710;6.502;2023-08-12T12:17:49;3.75;;;1.55;;
52554;SDS011;38455;52.710;6.502;2023-08-12T12:20:16;5.32;;;1.80;;
52554;SDS011;38455;52.710;6.502;2023-08-12T12:22:43;3.95;;;1.58;;
52554;SDS011;38455;52.710;6.502;2023-08-12T12:25:13;3.55;;;1.42;;
52554;SDS011;38455;52.710;6.502;2023-08-12T12:27:41;5.20;;;1.70;;
52554;SDS011;38455;52.710;6.502;2023-08-12T12:30:08;4.78;;;1.42;;
52554;SDS011;38455;52.710;6.502;2023-08-12T12:32:36;5.07;;;1.60;;
52554;SDS011;38455;52.710;6.502;2023-08-12T12:35:02;4.40;;;2.00;;
52554;SDS011;38455;52.710;6.502;2023-08-12T12:37:29;4.55;;;1.63;;
52554;SDS011;38455;52.710;6.502;2023-08-12T12:39:55;4.85;;;1.60;;
52554;SDS011;38455;52.710;6.502;2023-08-12T12:42:20;3.80;;;1.45;;
52554;SDS011;38455;52.710;6.502;2023-08-12T12:44:46;7.93;;;1.83;;
52554;SDS011;38455;52.710;6.502;2023-08-12T12:47:12;6.32;;;1.55;;
52554;SDS011;38455;52.710;6.502;2023-08-12T12:49:38;4.63;;;1.85;;
52554;SDS011;38455;52.710;6.502;2023-08-12T12:52:06;6.18;;;1.63;;
52554;SDS011;38455;52.710;6.502;2023-08-12T12:54:32;5.97;;;1.80;;
52554;SDS011;38455;52.710;6.502;2023-08-12T12:56:57;7.70;;;1.98;;
52554;SDS011;38455;52.710;6.502;2023-08-12T12:59:23;4.15;;;1.63;;
52554;SDS011;38455;52.710;6.502;2023-08-12T13:01:49;5.53;;;1.67;;
52554;SDS011;38455;52.710;6.502;2023-08-12T13:04:15;7.20;;;1.85;;
52554;SDS011;38455;52.710;6.502;2023-08-12T13:06:41;9.05;;;2.20;;
52554;SDS011;38455;52.710;6.502;2023-08-12T13:09:07;3.97;;;1.65;;
52554;SDS011;38455;52.710;6.502;2023-08-12T13:11:33;6.35;;;1.63;;
52554;SDS011;38455;52.710;6.502;2023-08-12T13:14:04;4.80;;;2.05;;
52554;SDS011;38455;52.710;6.502;2023-08-12T13:16:30;5.78;;;1.70;;
52554;SDS011;38455;52.710;6.502;2023-08-12T13:18:56;6.75;;;1.95;;
52554;SDS011;38455;52.710;6.502;2023-08-12T13:21:24;7.00;;;1.50;;
52554;SDS011;38455;52.710;6.502;2023-08-12T13:23:50;3.97;;;1.40;;
52554;SDS011;38455;52.710;6.502;2023-08-12T13:26:16;6.07;;;1.85;;
52554;SDS011;38455;52.710;6.502;2023-08-12T13:28:43;7.45;;;1.90;;
52554;SDS011;38455;52.710;6.502;2023-08-12T13:31:08;9.20;;;2.63;;
52554;SDS011;38455;52.710;6.502;2023-08-12T13:33:34;8.25;;;2.10;;
52554;SDS011;38455;52.710;6.502;2023-08-12T13:36:00;7.45;;;2.00;;
52554;SDS011;38455;52.710;6.502;2023-08-12T13:38:26;4.28;;;1.65;;
52554;SDS011;38455;52.710;6.502;2023-08-12T13:40:52;5.35;;;1.75;;
52554;SDS011;38455;52.710;6.502;2023-08-12T13:43:17;4.93;;;1.48;;
52554;SDS011;38455;52.710;6.502;2023-08-12T13:45:43;6.60;;;1.77;;
52554;SDS011;38455;52.710;6.502;2023-08-12T13:48:09;7.57;;;2.00;;
52554;SDS011;38455;52.710;6.502;2023-08-12T13:50:34;8.50;;;1.75;;
52554;SDS011;38455;52.710;6.502;2023-08-12T13:53:00;5.63;;;1.98;;
52554;SDS011;38455;52.710;6.502;2023-08-12T13:55:26;8.07;;;2.08;;
52554;SDS011;38455;52.710;6.502;2023-08-12T13:57:52;6.90;;;1.88;;
52554;SDS011;38455;52.710;6.502;2023-08-12T14:00:18;6.28;;;2.03;;
52554;SDS011;38455;52.710;6.502;2023-08-12T14:02:44;5.97;;;1.73;;
52554;SDS011;38455;52.710;6.502;2023-08-12T14:05:10;6.20;;;1.80;;
52554;SDS011;38455;52.710;6.502;2023-08-12T14:07:36;8.40;;;1.83;;
52554;SDS011;38455;52.710;6.502;2023-08-12T14:10:02;7.88;;;1.73;;
52554;SDS011;38455;52.710;6.502;2023-08-12T14:12:28;10.43;;;1.85;;
52554;SDS011;38455;52.710;6.502;2023-08-12T14:14:54;7.80;;;2.28;;
52554;SDS011;38455;52.710;6.502;2023-08-12T14:17:20;4.43;;;1.58;;
52554;SDS011;38455;52.710;6.502;2023-08-12T14:19:48;6.53;;;1.92;;
52554;SDS011;38455;52.710;6.502;2023-08-12T14:22:15;10.02;;;2.25;;
52554;SDS011;38455;52.710;6.502;2023-08-12T14:24:41;7.50;;;1.85;;
52554;SDS011;38455;52.710;6.502;2023-08-12T14:27:09;7.00;;;1.92;;
52554;SDS011;38455;52.710;6.502;2023-08-12T14:29:35;11.70;;;2.25;;
52554;SDS011;38455;52.710;6.502;2023-08-12T14:32:00;8.13;;;2.17;;
52554;SDS011;38455;52.710;6.502;2023-08-12T14:34:27;8.23;;;2.20;;